Terminal Aerodrome Forecast
Issued by NWS Wichita, KS

Home | Current Version | Previous Version | Text Only | Print | Product List | Glossary Off
Versions: 1 2 3 4 5 6 7 8 9 10 11 12 13 14 15 16 17 18 19 20

000
FTUS43 KICT 200522
TAFICT
TAF
KICT 200522Z 2006/2106 17011KT P6SM FEW250
     FM200800 17011KT P6SM FEW250 WS020/19040KT
     FM201300 17014G23KT P6SM SCT200
     FM201700 17023G33KT P6SM BKN110=

USA.gov is the U.S. government's official web portal to all federal, state and local government web resources and services.